Saint Cloud, Minnesota
Current Conditions -  °F | °C
As of 11:53 AM on Wednesday 26 Nov 2014 (Local Time) from KSTC Reporting Station
Overcast Overcast  
Wind Chill: -11°   Ceiling: 2000
Heat Index: -4°   Visibility: 10mi
Dew Point: -9°   Wind: 13mph
Humidity: 69%   Direction: 360°N
Pressure: 30.2"   Gusts: NA
Location:  45.55°N, 94.06°W
Report Text: KSTC 261753Z 36011KT 10SM OVC020 M04/M09 A3020 RMK AO2 SLP253 60001 T10441094 11039 21056 51015
Loading
Personal Weather Stations






























Interactive Weather Map New forecast layout! Learn more

10-Day Weather Forecast

Advertisements
Track Severe Weather on mobile